sensor_id;sensor_type;location;lat;lon;timestamp;temperature;humidity
20891;DHT22;10605;52.968;8.844;2022-10-17T00:00:48;13.10;99.90
20891;DHT22;10605;52.968;8.844;2022-10-17T00:03:14;13.10;99.90
20891;DHT22;10605;52.968;8.844;2022-10-17T00:05:42;13.10;99.90
20891;DHT22;10605;52.968;8.844;2022-10-17T00:08:09;13.10;99.90
20891;DHT22;10605;52.968;8.844;2022-10-17T00:10:35;13.10;99.90
20891;DHT22;10605;52.968;8.844;2022-10-17T00:13:01;13.20;99.90
20891;DHT22;10605;52.968;8.844;2022-10-17T00:15:27;13.20;99.90
20891;DHT22;10605;52.968;8.844;2022-10-17T00:17:53;13.10;99.90
20891;DHT22;10605;52.968;8.844;2022-10-17T00:20:19;13.10;99.90
20891;DHT22;10605;52.968;8.844;2022-10-17T00:22:44;13.10;99.90
20891;DHT22;10605;52.968;8.844;2022-10-17T00:25:10;13.20;99.90
20891;DHT22;10605;52.968;8.844;2022-10-17T00:27:38;13.20;99.90
20891;DHT22;10605;52.968;8.844;2022-10-17T00:30:05;13.20;99.90
20891;DHT22;10605;52.968;8.844;2022-10-17T00:32:31;13.20;99.90
20891;DHT22;10605;52.968;8.844;2022-10-17T00:34:57;13.20;99.90
20891;DHT22;10605;52.968;8.844;2022-10-17T00:37:23;13.20;99.90
20891;DHT22;10605;52.968;8.844;2022-10-17T00:39:49;13.10;99.90
20891;DHT22;10605;52.968;8.844;2022-10-17T00:42:15;13.10;99.90
20891;DHT22;10605;52.968;8.844;2022-10-17T00:47:10;13.00;99.90
20891;DHT22;10605;52.968;8.844;2022-10-17T00:49:39;12.90;99.90
20891;DHT22;10605;52.968;8.844;2022-10-17T00:52:11;12.80;99.90
20891;DHT22;10605;52.968;8.844;2022-10-17T00:54:41;12.70;99.90
20891;DHT22;10605;52.968;8.844;2022-10-17T00:57:08;12.70;99.90
20891;DHT22;10605;52.968;8.844;2022-10-17T00:59:37;12.60;99.90
20891;DHT22;10605;52.968;8.844;2022-10-17T01:04:29;12.50;99.90
20891;DHT22;10605;52.968;8.844;2022-10-17T01:06:57;12.50;99.90
20891;DHT22;10605;52.968;8.844;2022-10-17T01:09:23;12.50;99.90
20891;DHT22;10605;52.968;8.844;2022-10-17T01:11:51;12.30;99.90
20891;DHT22;10605;52.968;8.844;2022-10-17T01:14:34;12.40;99.90
20891;DHT22;10605;52.968;8.844;2022-10-17T01:17:21;12.30;99.90
20891;DHT22;10605;52.968;8.844;2022-10-17T01:19:58;12.30;99.90
20891;DHT22;10605;52.968;8.844;2022-10-17T01:31:11;12.60;99.90
20891;DHT22;10605;52.968;8.844;2022-10-17T01:36:48;12.60;99.90
20891;DHT22;10605;52.968;8.844;2022-10-17T01:39:38;12.60;99.90
20891;DHT22;10605;52.968;8.844;2022-10-17T01:47:32;12.50;99.90
20891;DHT22;10605;52.968;8.844;2022-10-17T01:50:09;12.50;99.90
20891;DHT22;10605;52.968;8.844;2022-10-17T01:53:17;12.40;99.90
20891;DHT22;10605;52.968;8.844;2022-10-17T01:55:51;12.40;99.90
20891;DHT22;10605;52.968;8.844;2022-10-17T01:58:28;12.40;99.90
20891;DHT22;10605;52.968;8.844;2022-10-17T02:00:58;12.40;99.90
20891;DHT22;10605;52.968;8.844;2022-10-17T02:03:26;12.40;99.90
20891;DHT22;10605;52.968;8.844;2022-10-17T02:05:52;12.30;99.90
20891;DHT22;10605;52.968;8.844;2022-10-17T02:11:14;12.30;99.90
20891;DHT22;10605;52.968;8.844;2022-10-17T02:20:09;12.00;99.90
20891;DHT22;10605;52.968;8.844;2022-10-17T02:22:34;11.90;99.90
20891;DHT22;10605;52.968;8.844;2022-10-17T02:27:32;11.80;99.90
20891;DHT22;10605;52.968;8.844;2022-10-17T02:30:13;11.80;99.90
20891;DHT22;10605;52.968;8.844;2022-10-17T02:33:46;11.80;99.90
20891;DHT22;10605;52.968;8.844;2022-10-17T02:35:53;11.70;99.90
20891;DHT22;10605;52.968;8.844;2022-10-17T02:38:22;11.70;99.90
20891;DHT22;10605;52.968;8.844;2022-10-17T02:40:50;11.70;99.90
20891;DHT22;10605;52.968;8.844;2022-10-17T02:43:22;11.70;99.90
20891;DHT22;10605;52.968;8.844;2022-10-17T02:45:49;11.70;99.90
20891;DHT22;10605;52.968;8.844;2022-10-17T02:48:35;11.70;99.90
20891;DHT22;10605;52.968;8.844;2022-10-17T02:51:41;11.70;99.90
20891;DHT22;10605;52.968;8.844;2022-10-17T02:54:17;11.60;99.90
20891;DHT22;10605;52.968;8.844;2022-10-17T02:59:40;11.60;99.90
20891;DHT22;10605;52.968;8.844;2022-10-17T03:02:11;11.60;99.90
20891;DHT22;10605;52.968;8.844;2022-10-17T03:04:38;11.70;99.90
20891;DHT22;10605;52.968;8.844;2022-10-17T03:07:06;11.70;99.90
20891;DHT22;10605;52.968;8.844;2022-10-17T03:09:32;11.70;99.90
20891;DHT22;10605;52.968;8.844;2022-10-17T03:12:01;11.60;99.90
20891;DHT22;10605;52.968;8.844;2022-10-17T03:14:32;11.70;99.90
20891;DHT22;10605;52.968;8.844;2022-10-17T03:17:03;11.60;99.90
20891;DHT22;10605;52.968;8.844;2022-10-17T03:19:29;11.60;99.90
20891;DHT22;10605;52.968;8.844;2022-10-17T03:21:54;11.60;99.90
20891;DHT22;10605;52.968;8.844;2022-10-17T03:24:20;11.60;99.90
20891;DHT22;10605;52.968;8.844;2022-10-17T03:26:52;11.60;99.90
20891;DHT22;10605;52.968;8.844;2022-10-17T03:29:18;11.60;99.90
20891;DHT22;10605;52.968;8.844;2022-10-17T03:31:46;11.60;99.90
20891;DHT22;10605;52.968;8.844;2022-10-17T03:34:12;11.60;99.90
20891;DHT22;10605;52.968;8.844;2022-10-17T03:36:37;11.60;99.90
20891;DHT22;10605;52.968;8.844;2022-10-17T03:39:03;11.60;99.90
20891;DHT22;10605;52.968;8.844;2022-10-17T03:41:32;11.70;99.90
20891;DHT22;10605;52.968;8.844;2022-10-17T03:44:00;11.70;99.90
20891;DHT22;10605;52.968;8.844;2022-10-17T03:46:26;11.80;99.90
20891;DHT22;10605;52.968;8.844;2022-10-17T03:48:52;11.80;99.90
20891;DHT22;10605;52.968;8.844;2022-10-17T03:51:17;11.80;99.90
20891;DHT22;10605;52.968;8.844;2022-10-17T03:53:43;11.90;99.90
20891;DHT22;10605;52.968;8.844;2022-10-17T03:56:14;11.90;99.90
20891;DHT22;10605;52.968;8.844;2022-10-17T03:58:41;11.90;99.90
20891;DHT22;10605;52.968;8.844;2022-10-17T04:01:09;11.90;99.90
20891;DHT22;10605;52.968;8.844;2022-10-17T04:03:38;11.90;99.90
20891;DHT22;10605;52.968;8.844;2022-10-17T04:06:04;11.90;99.90
20891;DHT22;10605;52.968;8.844;2022-10-17T04:08:31;12.00;99.90
20891;DHT22;10605;52.968;8.844;2022-10-17T04:11:07;12.00;99.90
20891;DHT22;10605;52.968;8.844;2022-10-17T04:13:35;12.00;99.90
20891;DHT22;10605;52.968;8.844;2022-10-17T04:16:04;12.00;99.90
20891;DHT22;10605;52.968;8.844;2022-10-17T04:18:30;12.00;99.90
20891;DHT22;10605;52.968;8.844;2022-10-17T04:21:00;12.00;99.90
20891;DHT22;10605;52.968;8.844;2022-10-17T04:23:26;12.00;99.90
20891;DHT22;10605;52.968;8.844;2022-10-17T04:25:55;12.00;99.90
20891;DHT22;10605;52.968;8.844;2022-10-17T04:28:22;12.10;99.90
20891;DHT22;10605;52.968;8.844;2022-10-17T04:30:58;12.10;99.90
20891;DHT22;10605;52.968;8.844;2022-10-17T04:33:24;12.10;99.90
20891;DHT22;10605;52.968;8.844;2022-10-17T04:38:25;12.20;99.90
20891;DHT22;10605;52.968;8.844;2022-10-17T04:40:52;12.20;99.90
20891;DHT22;10605;52.968;8.844;2022-10-17T04:43:18;12.20;99.90
20891;DHT22;10605;52.968;8.844;2022-10-17T04:45:44;12.20;99.90
20891;DHT22;10605;52.968;8.844;2022-10-17T04:48:10;12.20;99.90
20891;DHT22;10605;52.968;8.844;2022-10-17T04:50:35;12.20;99.90
20891;DHT22;10605;52.968;8.844;2022-10-17T04:53:01;12.20;99.90
20891;DHT22;10605;52.968;8.844;2022-10-17T04:55:27;12.10;99.90
20891;DHT22;10605;52.968;8.844;2022-10-17T04:57:56;12.20;99.90
20891;DHT22;10605;52.968;8.844;2022-10-17T05:00:21;12.10;99.90
20891;DHT22;10605;52.968;8.844;2022-10-17T05:02:47;12.20;99.90
20891;DHT22;10605;52.968;8.844;2022-10-17T05:05:13;12.20;99.90
20891;DHT22;10605;52.968;8.844;2022-10-17T05:07:39;12.20;99.90
20891;DHT22;10605;52.968;8.844;2022-10-17T05:10:08;12.20;99.90
20891;DHT22;10605;52.968;8.844;2022-10-17T05:12:34;12.20;99.90
20891;DHT22;10605;52.968;8.844;2022-10-17T05:14:59;12.20;99.90
20891;DHT22;10605;52.968;8.844;2022-10-17T05:17:25;12.30;99.90
20891;DHT22;10605;52.968;8.844;2022-10-17T05:19:51;12.20;99.90
20891;DHT22;10605;52.968;8.844;2022-10-17T05:22:16;12.20;99.90
20891;DHT22;10605;52.968;8.844;2022-10-17T05:24:42;12.20;99.90
20891;DHT22;10605;52.968;8.844;2022-10-17T05:27:08;12.10;99.90
20891;DHT22;10605;52.968;8.844;2022-10-17T05:29:34;12.20;99.90
20891;DHT22;10605;52.968;8.844;2022-10-17T05:31:59;12.10;99.90
20891;DHT22;10605;52.968;8.844;2022-10-17T05:34:32;12.20;99.90
20891;DHT22;10605;52.968;8.844;2022-10-17T05:36:58;12.10;99.90
20891;DHT22;10605;52.968;8.844;2022-10-17T05:39:23;12.20;99.90
20891;DHT22;10605;52.968;8.844;2022-10-17T05:41:49;12.20;99.90
20891;DHT22;10605;52.968;8.844;2022-10-17T05:44:17;12.20;99.90
20891;DHT22;10605;52.968;8.844;2022-10-17T05:46:42;12.20;99.90
20891;DHT22;10605;52.968;8.844;2022-10-17T05:49:11;12.20;99.90
20891;DHT22;10605;52.968;8.844;2022-10-17T05:51:37;12.20;99.90
20891;DHT22;10605;52.968;8.844;2022-10-17T05:54:07;12.20;99.90
20891;DHT22;10605;52.968;8.844;2022-10-17T05:56:33;12.20;99.90
20891;DHT22;10605;52.968;8.844;2022-10-17T05:58:59;12.20;99.90
20891;DHT22;10605;52.968;8.844;2022-10-17T06:01:25;12.30;99.90
20891;DHT22;10605;52.968;8.844;2022-10-17T06:03:51;12.30;99.90
20891;DHT22;10605;52.968;8.844;2022-10-17T06:06:19;12.30;99.90
20891;DHT22;10605;52.968;8.844;2022-10-17T06:08:45;12.30;99.90
20891;DHT22;10605;52.968;8.844;2022-10-17T06:11:12;12.40;99.90
20891;DHT22;10605;52.968;8.844;2022-10-17T06:13:38;12.40;99.90
20891;DHT22;10605;52.968;8.844;2022-10-17T06:16:05;12.40;99.90
20891;DHT22;10605;52.968;8.844;2022-10-17T06:18:31;12.40;99.90
20891;DHT22;10605;52.968;8.844;2022-10-17T06:21:09;12.50;99.90
20891;DHT22;10605;52.968;8.844;2022-10-17T06:23:35;12.60;99.90
20891;DHT22;10605;52.968;8.844;2022-10-17T06:26:03;12.70;99.90
20891;DHT22;10605;52.968;8.844;2022-10-17T06:28:40;12.70;99.90
20891;DHT22;10605;52.968;8.844;2022-10-17T06:31:08;12.80;99.90
20891;DHT22;10605;52.968;8.844;2022-10-17T06:33:57;13.00;99.90
20891;DHT22;10605;52.968;8.844;2022-10-17T06:36:22;13.20;99.90
20891;DHT22;10605;52.968;8.844;2022-10-17T06:38:48;13.30;99.90
20891;DHT22;10605;52.968;8.844;2022-10-17T06:41:15;13.40;99.90
20891;DHT22;10605;52.968;8.844;2022-10-17T06:43:44;13.50;99.90
20891;DHT22;10605;52.968;8.844;2022-10-17T06:46:11;13.70;99.90
20891;DHT22;10605;52.968;8.844;2022-10-17T06:48:37;14.00;99.90
20891;DHT22;10605;52.968;8.844;2022-10-17T06:51:04;14.20;99.90
20891;DHT22;10605;52.968;8.844;2022-10-17T06:53:32;14.00;99.90
20891;DHT22;10605;52.968;8.844;2022-10-17T06:55:58;14.20;99.90
20891;DHT22;10605;52.968;8.844;2022-10-17T06:58:35;14.60;99.90
20891;DHT22;10605;52.968;8.844;2022-10-17T07:01:10;14.90;99.90
20891;DHT22;10605;52.968;8.844;2022-10-17T07:03:39;15.30;99.90
20891;DHT22;10605;52.968;8.844;2022-10-17T07:06:07;15.20;99.90
20891;DHT22;10605;52.968;8.844;2022-10-17T07:08:35;15.10;99.90
20891;DHT22;10605;52.968;8.844;2022-10-17T07:11:09;15.00;99.90
20891;DHT22;10605;52.968;8.844;2022-10-17T07:13:34;14.90;99.90
20891;DHT22;10605;52.968;8.844;2022-10-17T07:16:00;14.80;99.90
20891;DHT22;10605;52.968;8.844;2022-10-17T07:18:26;14.70;99.90
20891;DHT22;10605;52.968;8.844;2022-10-17T07:20:53;14.70;99.90
20891;DHT22;10605;52.968;8.844;2022-10-17T07:23:19;14.70;99.90
20891;DHT22;10605;52.968;8.844;2022-10-17T07:25:45;15.00;99.90
20891;DHT22;10605;52.968;8.844;2022-10-17T07:28:10;15.30;99.90
20891;DHT22;10605;52.968;8.844;2022-10-17T07:30:36;16.00;99.90
20891;DHT22;10605;52.968;8.844;2022-10-17T07:33:02;16.60;99.90
20891;DHT22;10605;52.968;8.844;2022-10-17T07:35:29;17.00;99.90
20891;DHT22;10605;52.968;8.844;2022-10-17T07:37:55;16.80;99.90
20891;DHT22;10605;52.968;8.844;2022-10-17T07:40:21;16.60;99.90
20891;DHT22;10605;52.968;8.844;2022-10-17T07:42:49;16.70;99.90
20891;DHT22;10605;52.968;8.844;2022-10-17T07:45:16;16.70;99.90
20891;DHT22;10605;52.968;8.844;2022-10-17T07:47:43;16.80;99.90
20891;DHT22;10605;52.968;8.844;2022-10-17T07:50:09;16.80;99.90
20891;DHT22;10605;52.968;8.844;2022-10-17T07:52:36;16.90;99.90
20891;DHT22;10605;52.968;8.844;2022-10-17T07:55:01;17.10;99.90
20891;DHT22;10605;52.968;8.844;2022-10-17T07:57:30;17.00;99.90
20891;DHT22;10605;52.968;8.844;2022-10-17T07:59:57;17.10;99.90
20891;DHT22;10605;52.968;8.844;2022-10-17T08:02:27;17.10;99.90
20891;DHT22;10605;52.968;8.844;2022-10-17T08:04:55;17.20;99.90
20891;DHT22;10605;52.968;8.844;2022-10-17T08:07:21;17.10;99.90
20891;DHT22;10605;52.968;8.844;2022-10-17T08:09:47;17.20;99.90
20891;DHT22;10605;52.968;8.844;2022-10-17T08:12:13;17.20;99.90
20891;DHT22;10605;52.968;8.844;2022-10-17T08:14:40;17.40;99.90
20891;DHT22;10605;52.968;8.844;2022-10-17T08:17:06;17.70;99.90
20891;DHT22;10605;52.968;8.844;2022-10-17T08:19:32;18.00;99.90
20891;DHT22;10605;52.968;8.844;2022-10-17T08:22:00;18.70;99.90
20891;DHT22;10605;52.968;8.844;2022-10-17T08:24:26;19.20;99.90
20891;DHT22;10605;52.968;8.844;2022-10-17T08:26:52;19.70;99.90
20891;DHT22;10605;52.968;8.844;2022-10-17T08:29:18;20.10;99.90
20891;DHT22;10605;52.968;8.844;2022-10-17T08:31:44;20.70;99.90
20891;DHT22;10605;52.968;8.844;2022-10-17T08:34:10;20.90;99.90
20891;DHT22;10605;52.968;8.844;2022-10-17T08:36:35;20.90;99.90
20891;DHT22;10605;52.968;8.844;2022-10-17T08:39:02;21.30;99.90
20891;DHT22;10605;52.968;8.844;2022-10-17T08:48:19;21.10;99.90
20891;DHT22;10605;52.968;8.844;2022-10-17T08:51:57;20.70;99.90
20891;DHT22;10605;52.968;8.844;2022-10-17T08:58:23;20.60;99.90
20891;DHT22;10605;52.968;8.844;2022-10-17T09:11:41;22.40;99.90
20891;DHT22;10605;52.968;8.844;2022-10-17T09:30:46;24.10;99.90
20891;DHT22;10605;52.968;8.844;2022-10-17T09:34:19;24.00;99.90
20891;DHT22;10605;52.968;8.844;2022-10-17T09:37:10;24.00;99.90
20891;DHT22;10605;52.968;8.844;2022-10-17T09:40:52;24.40;99.90
20891;DHT22;10605;52.968;8.844;2022-10-17T09:51:04;25.00;99.90
20891;DHT22;10605;52.968;8.844;2022-10-17T11:22:41;20.30;99.90
20891;DHT22;10605;52.968;8.844;2022-10-17T12:22:29;18.90;99.90
20891;DHT22;10605;52.968;8.844;2022-10-17T16:18:57;17.40;99.90
20891;DHT22;10605;52.968;8.844;2022-10-17T16:22:00;17.40;99.90
20891;DHT22;10605;52.968;8.844;2022-10-17T16:31:49;17.30;99.90
20891;DHT22;10605;52.968;8.844;2022-10-17T16:48:56;17.30;99.90
20891;DHT22;10605;52.968;8.844;2022-10-17T17:02:26;17.20;99.90
20891;DHT22;10605;52.968;8.844;2022-10-17T17:05:55;17.20;99.90
20891;DHT22;10605;52.968;8.844;2022-10-17T17:09:10;17.10;99.90
20891;DHT22;10605;52.968;8.844;2022-10-17T17:15:08;17.10;99.90
20891;DHT22;10605;52.968;8.844;2022-10-17T17:17:34;17.10;99.90
20891;DHT22;10605;52.968;8.844;2022-10-17T17:20:00;17.00;99.90
20891;DHT22;10605;52.968;8.844;2022-10-17T17:22:26;17.00;99.90
20891;DHT22;10605;52.968;8.844;2022-10-17T17:24:53;17.00;99.90
20891;DHT22;10605;52.968;8.844;2022-10-17T17:27:20;17.00;99.90
20891;DHT22;10605;52.968;8.844;2022-10-17T17:30:29;17.00;99.90
20891;DHT22;10605;52.968;8.844;2022-10-17T17:33:40;17.00;99.90
20891;DHT22;10605;52.968;8.844;2022-10-17T17:36:41;17.00;99.90
20891;DHT22;10605;52.968;8.844;2022-10-17T17:39:53;17.00;99.90
20891;DHT22;10605;52.968;8.844;2022-10-17T17:46:59;17.00;99.90
20891;DHT22;10605;52.968;8.844;2022-10-17T17:49:25;17.00;99.90
20891;DHT22;10605;52.968;8.844;2022-10-17T17:55:11;16.90;99.90
20891;DHT22;10605;52.968;8.844;2022-10-17T18:01:12;16.90;99.90
20891;DHT22;10605;52.968;8.844;2022-10-17T18:10:20;16.90;99.90
20891;DHT22;10605;52.968;8.844;2022-10-17T18:13:24;16.80;99.90
20891;DHT22;10605;52.968;8.844;2022-10-17T18:16:04;16.80;99.90
20891;DHT22;10605;52.968;8.844;2022-10-17T18:36:06;16.40;99.90
20891;DHT22;10605;52.968;8.844;2022-10-17T18:46:19;16.20;99.90
20891;DHT22;10605;52.968;8.844;2022-10-17T18:53:20;16.10;99.90
20891;DHT22;10605;52.968;8.844;2022-10-17T18:56:17;16.00;99.90
20891;DHT22;10605;52.968;8.844;2022-10-17T18:59:48;16.00;99.90
20891;DHT22;10605;52.968;8.844;2022-10-17T19:03:21;16.00;99.90
20891;DHT22;10605;52.968;8.844;2022-10-17T19:06:31;15.90;99.90
20891;DHT22;10605;52.968;8.844;2022-10-17T19:17:03;15.90;99.90
20891;DHT22;10605;52.968;8.844;2022-10-17T19:20:21;15.70;99.90
20891;DHT22;10605;52.968;8.844;2022-10-17T19:23:22;15.70;99.90
20891;DHT22;10605;52.968;8.844;2022-10-17T19:26:32;15.60;99.90
20891;DHT22;10605;52.968;8.844;2022-10-17T19:29:58;15.60;99.90
20891;DHT22;10605;52.968;8.844;2022-10-17T19:32:57;15.70;99.90
20891;DHT22;10605;52.968;8.844;2022-10-17T19:36:10;15.70;99.90
20891;DHT22;10605;52.968;8.844;2022-10-17T19:42:38;15.80;99.90
20891;DHT22;10605;52.968;8.844;2022-10-17T20:02:32;15.60;99.90
20891;DHT22;10605;52.968;8.844;2022-10-17T20:12:44;15.50;99.90
20891;DHT22;10605;52.968;8.844;2022-10-17T20:19:31;15.50;99.90
20891;DHT22;10605;52.968;8.844;2022-10-17T20:23:10;15.50;99.90
20891;DHT22;10605;52.968;8.844;2022-10-17T20:26:14;15.60;99.90
20891;DHT22;10605;52.968;8.844;2022-10-17T20:42:47;15.50;99.90
20891;DHT22;10605;52.968;8.844;2022-10-17T20:48:54;15.50;99.90
20891;DHT22;10605;52.968;8.844;2022-10-17T20:55:29;15.40;99.90
20891;DHT22;10605;52.968;8.844;2022-10-17T20:58:28;15.30;99.90
20891;DHT22;10605;52.968;8.844;2022-10-17T21:01:46;15.30;99.90
20891;DHT22;10605;52.968;8.844;2022-10-17T21:04:44;15.20;99.90
20891;DHT22;10605;52.968;8.844;2022-10-17T21:08:33;15.20;99.90
20891;DHT22;10605;52.968;8.844;2022-10-17T21:11:36;15.20;99.90
20891;DHT22;10605;52.968;8.844;2022-10-17T21:24:27;15.10;99.90
20891;DHT22;10605;52.968;8.844;2022-10-17T21:26:53;15.10;99.90
20891;DHT22;10605;52.968;8.844;2022-10-17T21:29:22;15.10;99.90
20891;DHT22;10605;52.968;8.844;2022-10-17T21:31:48;15.10;99.90
20891;DHT22;10605;52.968;8.844;2022-10-17T21:34:20;15.10;99.90
20891;DHT22;10605;52.968;8.844;2022-10-17T21:36:46;15.10;99.90
20891;DHT22;10605;52.968;8.844;2022-10-17T21:39:13;15.10;99.90
20891;DHT22;10605;52.968;8.844;2022-10-17T21:41:40;15.10;99.90
20891;DHT22;10605;52.968;8.844;2022-10-17T21:44:11;15.10;99.90
20891;DHT22;10605;52.968;8.844;2022-10-17T21:46:37;15.10;99.90
20891;DHT22;10605;52.968;8.844;2022-10-17T21:49:03;15.20;99.90
20891;DHT22;10605;52.968;8.844;2022-10-17T21:51:28;15.10;99.90
20891;DHT22;10605;52.968;8.844;2022-10-17T21:53:55;15.10;99.90
20891;DHT22;10605;52.968;8.844;2022-10-17T21:56:25;15.10;99.90
20891;DHT22;10605;52.968;8.844;2022-10-17T21:58:56;15.10;99.90
20891;DHT22;10605;52.968;8.844;2022-10-17T22:01:26;15.10;99.90
20891;DHT22;10605;52.968;8.844;2022-10-17T22:03:57;15.10;99.90
20891;DHT22;10605;52.968;8.844;2022-10-17T22:06:25;15.10;99.90
20891;DHT22;10605;52.968;8.844;2022-10-17T22:08:54;15.10;99.90
20891;DHT22;10605;52.968;8.844;2022-10-17T22:11:30;15.00;99.90
20891;DHT22;10605;52.968;8.844;2022-10-17T22:14:01;15.00;99.90
20891;DHT22;10605;52.968;8.844;2022-10-17T22:16:27;15.00;99.90
20891;DHT22;10605;52.968;8.844;2022-10-17T22:18:57;14.90;99.90
20891;DHT22;10605;52.968;8.844;2022-10-17T22:21:23;14.90;99.90
20891;DHT22;10605;52.968;8.844;2022-10-17T22:23:58;14.90;99.90
20891;DHT22;10605;52.968;8.844;2022-10-17T22:26:25;14.90;99.90
20891;DHT22;10605;52.968;8.844;2022-10-17T22:28:51;14.80;99.90
20891;DHT22;10605;52.968;8.844;2022-10-17T22:31:16;14.80;99.90
20891;DHT22;10605;52.968;8.844;2022-10-17T22:33:45;14.80;99.90
20891;DHT22;10605;52.968;8.844;2022-10-17T22:36:11;14.80;99.90
20891;DHT22;10605;52.968;8.844;2022-10-17T22:38:36;14.80;99.90
20891;DHT22;10605;52.968;8.844;2022-10-17T22:41:02;14.90;99.90
20891;DHT22;10605;52.968;8.844;2022-10-17T22:43:28;14.80;99.90
20891;DHT22;10605;52.968;8.844;2022-10-17T22:45:59;14.80;99.90
20891;DHT22;10605;52.968;8.844;2022-10-17T22:48:25;14.80;99.90
20891;DHT22;10605;52.968;8.844;2022-10-17T22:50:52;14.80;99.90
20891;DHT22;10605;52.968;8.844;2022-10-17T22:53:19;14.80;99.90
20891;DHT22;10605;52.968;8.844;2022-10-17T22:55:50;14.80;99.90
20891;DHT22;10605;52.968;8.844;2022-10-17T22:58:20;14.80;99.90
20891;DHT22;10605;52.968;8.844;2022-10-17T23:00:47;14.80;99.90
20891;DHT22;10605;52.968;8.844;2022-10-17T23:03:13;14.80;99.90
20891;DHT22;10605;52.968;8.844;2022-10-17T23:05:39;14.80;99.90
20891;DHT22;10605;52.968;8.844;2022-10-17T23:08:05;14.80;99.90
20891;DHT22;10605;52.968;8.844;2022-10-17T23:10:30;14.90;99.90
20891;DHT22;10605;52.968;8.844;2022-10-17T23:13:02;14.80;99.90
20891;DHT22;10605;52.968;8.844;2022-10-17T23:15:27;14.80;99.90
20891;DHT22;10605;52.968;8.844;2022-10-17T23:17:54;14.80;99.90
20891;DHT22;10605;52.968;8.844;2022-10-17T23:20:20;14.80;99.90
20891;DHT22;10605;52.968;8.844;2022-10-17T23:22:45;14.80;99.90
20891;DHT22;10605;52.968;8.844;2022-10-17T23:25:11;14.80;99.90
20891;DHT22;10605;52.968;8.844;2022-10-17T23:27:36;14.80;99.90
20891;DHT22;10605;52.968;8.844;2022-10-17T23:30:03;14.80;99.90
20891;DHT22;10605;52.968;8.844;2022-10-17T23:32:29;14.70;99.90
20891;DHT22;10605;52.968;8.844;2022-10-17T23:34:55;14.70;99.90
20891;DHT22;10605;52.968;8.844;2022-10-17T23:37:20;14.70;99.90
20891;DHT22;10605;52.968;8.844;2022-10-17T23:39:46;14.60;99.90
20891;DHT22;10605;52.968;8.844;2022-10-17T23:42:12;14.60;99.90
20891;DHT22;10605;52.968;8.844;2022-10-17T23:44:37;14.50;99.90
20891;DHT22;10605;52.968;8.844;2022-10-17T23:47:03;14.50;99.90
20891;DHT22;10605;52.968;8.844;2022-10-17T23:49:29;14.50;99.90
20891;DHT22;10605;52.968;8.844;2022-10-17T23:51:54;14.50;99.90
20891;DHT22;10605;52.968;8.844;2022-10-17T23:54:20;14.50;99.90
20891;DHT22;10605;52.968;8.844;2022-10-17T23:56:46;14.50;99.90
20891;DHT22;10605;52.968;8.844;2022-10-17T23:59:12;14.50;99.90
